createdAt,value
2023-01-15T00:02:07.517Z,100759.94
2023-01-15T00:04:34.161Z,100752.91
2023-01-15T00:07:00.758Z,100752.84
2023-01-15T00:09:27.521Z,100757.97
2023-01-15T00:11:55.031Z,100759.84
2023-01-15T00:14:21.674Z,100748.28
2023-01-15T00:16:52.310Z,100752.75
2023-01-15T00:19:19.230Z,100759.03
2023-01-15T00:21:45.801Z,100754.63
2023-01-15T00:24:30.736Z,100753.78
2023-01-15T00:27:15.691Z,100745.09
2023-01-15T00:29:42.252Z,100744.22
2023-01-15T00:32:08.925Z,100746.88
2023-01-15T00:34:35.951Z,100741.56
2023-01-15T00:37:02.855Z,100735.47
2023-01-15T00:39:29.439Z,100734.59
2023-01-15T00:41:56.539Z,100729.34
2023-01-15T00:44:23.224Z,100727.94
2023-01-15T00:46:49.859Z,100729.81
2023-01-15T00:49:16.647Z,100733.25
2023-01-15T00:51:43.437Z,100723.50
2023-01-15T00:54:10.210Z,100743.16
2023-01-15T00:56:36.925Z,100740.81
2023-01-15T00:59:05.530Z,100736.72
2023-01-15T01:01:32.584Z,100741.75
2023-01-15T01:03:59.308Z,100732.47
2023-01-15T01:06:26.241Z,100728.38
2023-01-15T01:08:52.829Z,100720.84
2023-01-15T01:11:23.980Z,100718.41
2023-01-15T01:13:50.863Z,100720.22
2023-01-15T01:16:33.659Z,100720.28
2023-01-15T01:19:03.766Z,100717.75
2023-01-15T01:21:31.201Z,100723.22
2023-01-15T01:24:01.857Z,100718.84
2023-01-15T01:26:29.743Z,100719.75
2023-01-15T01:28:57.295Z,100716.47
2023-01-15T01:31:24.811Z,100717.47
2023-01-15T01:33:52.779Z,100712.16
2023-01-15T01:36:20.777Z,100711.28
2023-01-15T01:38:49.899Z,100715.88
2023-01-15T01:41:19.820Z,100711.56
2023-01-15T01:44:13.111Z,100715.88
2023-01-15T01:46:39.677Z,100703.53
2023-01-15T01:49:12.888Z,100701.88
2023-01-15T01:51:55.033Z,100698.38
2023-01-15T01:54:25.078Z,100689.41
2023-01-15T01:56:51.962Z,100687.75
2023-01-15T01:59:20.906Z,100672.19
2023-01-15T02:01:49.558Z,100675.06
2023-01-15T02:04:18.663Z,100663.66
2023-01-15T02:06:45.217Z,100660.03
2023-01-15T02:09:12.313Z,100658.28
2023-01-15T02:11:38.982Z,100651.59
2023-01-15T02:14:08.566Z,100640.88
2023-01-15T02:16:57.557Z,100648.75
2023-01-15T02:19:47.045Z,100636.16
2023-01-15T02:22:35.151Z,100640.31
2023-01-15T02:25:19.999Z,100641.91
2023-01-15T02:27:53.198Z,100639.31
2023-01-15T02:30:23.240Z,100646.31
2023-01-15T02:32:59.203Z,100640.25
2023-01-15T02:35:33.762Z,100634.78
2023-01-15T02:38:05.757Z,100631.28
2023-01-15T02:40:34.153Z,100627.09
2023-01-15T02:43:01.348Z,100627.97
2023-01-15T02:45:32.922Z,100624.41
2023-01-15T02:48:06.539Z,100621.63
2023-01-15T02:50:38.882Z,100613.66
2023-01-15T02:53:09.827Z,100613.56
2023-01-15T02:55:41.886Z,100615.38
2023-01-15T02:58:13.497Z,100604.91
2023-01-15T03:00:44.826Z,100616.31
2023-01-15T03:03:21.188Z,100613.56
2023-01-15T03:06:00.687Z,100602.91
2023-01-15T03:08:27.335Z,100595.94
2023-01-15T03:11:03.207Z,100599.47
2023-01-15T03:13:56.159Z,100602.34
2023-01-15T03:16:34.705Z,100596.09
2023-01-15T03:19:03.919Z,100597.03
2023-01-15T03:22:11.919Z,100597.03
2023-01-15T03:24:54.211Z,100594.50
2023-01-15T03:27:21.790Z,100593.56
2023-01-15T03:29:54.462Z,100592.56
2023-01-15T03:32:22.324Z,100584.50
2023-01-15T03:34:54.458Z,100589.69
2023-01-15T03:37:24.291Z,100582.75
2023-01-15T03:39:52.358Z,100575.94
2023-01-15T03:42:37.308Z,100571.72
2023-01-15T03:45:19.299Z,100580.47
2023-01-15T03:48:02.755Z,100577.81
2023-01-15T03:50:49.699Z,100580.47
2023-01-15T03:53:31.043Z,100571.53
2023-01-15T03:56:15.687Z,100576.72
2023-01-15T03:58:47.691Z,100572.25
2023-01-15T04:01:18.814Z,100570.38
2023-01-15T04:03:48.963Z,100575.66
2023-01-15T04:06:15.950Z,100574.59
2023-01-15T04:08:44.115Z,100581.75
2023-01-15T04:11:10.715Z,100582.69
2023-01-15T04:13:37.336Z,100581.69
2023-01-15T04:16:04.632Z,100582.50
2023-01-15T04:18:31.236Z,100572.59
2023-01-15T04:20:57.857Z,100571.72
2023-01-15T04:23:24.443Z,100562.19
2023-01-15T04:25:50.973Z,100560.34
2023-01-15T04:28:17.667Z,100560.19
2023-01-15T04:30:44.305Z,100553.03
2023-01-15T04:33:11.880Z,100559.19
2023-01-15T04:35:38.890Z,100557.41
2023-01-15T04:38:05.493Z,100558.16
2023-01-15T04:40:50.323Z,100553.63
2023-01-15T04:43:35.726Z,100549.50
2023-01-15T04:46:02.350Z,100552.22
2023-01-15T04:48:29.083Z,100552.16
2023-01-15T04:50:55.643Z,100554.75
2023-01-15T04:53:22.235Z,100552.09
2023-01-15T04:55:48.791Z,100558.09
2023-01-15T04:58:15.373Z,100554.75
2023-01-15T05:00:41.957Z,100556.38
2023-01-15T05:03:08.518Z,100564.34
2023-01-15T05:05:35.128Z,100553.63
2023-01-15T05:08:01.695Z,100554.38
2023-01-15T05:10:28.242Z,100554.38
2023-01-15T05:12:54.854Z,100544.78
2023-01-15T05:15:21.448Z,100541.03
2023-01-15T05:17:48.042Z,100525.97
2023-01-15T05:20:15.481Z,100528.63
2023-01-15T05:22:42.068Z,100519.09
2023-01-15T05:25:09.101Z,100511.84
2023-01-15T05:27:35.705Z,100519.81
2023-01-15T05:30:02.291Z,100511.84
2023-01-15T05:32:31.087Z,100511.13
2023-01-15T05:34:57.806Z,100510.13
2023-01-15T05:37:24.411Z,100504.75
2023-01-15T05:39:50.963Z,100496.72
2023-01-15T05:42:17.584Z,100499.22
2023-01-15T05:44:44.217Z,100482.28
2023-01-15T05:47:11.011Z,100491.13
2023-01-15T05:49:38.119Z,100486.75
2023-01-15T05:52:04.840Z,100481.44
2023-01-15T05:54:33.741Z,100482.28
2023-01-15T05:57:01.610Z,100481.34
2023-01-15T05:59:30.724Z,100478.63
2023-01-15T06:01:57.739Z,100473.25
2023-01-15T06:04:25.439Z,100479.25
2023-01-15T06:06:54.306Z,100462.41
2023-01-15T06:09:23.172Z,100466.94
2023-01-15T06:11:50.529Z,100456.16
2023-01-15T06:14:17.364Z,100461.41
2023-01-15T06:16:43.945Z,100462.97
2023-01-15T06:19:12.508Z,100456.66
2023-01-15T06:21:39.305Z,100465.38
2023-01-15T06:24:06.458Z,100462.66
2023-01-15T06:26:33.561Z,100469.75
2023-01-15T06:29:00.140Z,100471.38
2023-01-15T06:31:29.360Z,100466.94
2023-01-15T06:33:56.244Z,100464.13
2023-01-15T06:36:25.367Z,100463.97
2023-01-15T06:38:52.370Z,100471.00
2023-01-15T06:41:42.800Z,100466.47
2023-01-15T06:44:36.407Z,100468.97
2023-01-15T06:47:21.093Z,100464.34
2023-01-15T06:49:53.899Z,100459.75
2023-01-15T06:52:20.655Z,100452.66
2023-01-15T06:54:47.209Z,100449.91
2023-01-15T06:57:13.986Z,100447.09
2023-01-15T06:59:40.613Z,100452.25
2023-01-15T07:02:07.416Z,100446.00
2023-01-15T07:04:34.151Z,100444.88
2023-01-15T07:07:00.784Z,100451.75
2023-01-15T07:09:27.398Z,100452.38
2023-01-15T07:11:53.979Z,100444.28
2023-01-15T07:14:22.753Z,100451.09
2023-01-15T07:16:49.929Z,100455.34
2023-01-15T07:19:17.495Z,100451.59
2023-01-15T07:21:44.832Z,100440.78
2023-01-15T07:24:12.536Z,100448.47
2023-01-15T07:26:39.528Z,100442.25
2023-01-15T07:29:07.315Z,100449.22
2023-01-15T07:31:34.213Z,100452.63
2023-01-15T07:34:01.008Z,100447.38
2023-01-15T07:36:27.958Z,100443.72
2023-01-15T07:38:55.796Z,100434.72
2023-01-15T07:41:41.217Z,100428.47
2023-01-15T07:44:29.774Z,100430.00
2023-01-15T07:47:15.148Z,100435.25
2023-01-15T07:49:46.149Z,100431.56
2023-01-15T07:52:14.248Z,100428.91
2023-01-15T07:54:41.262Z,100426.06
2023-01-15T07:57:08.337Z,100429.59
2023-01-15T07:59:34.939Z,100428.56
2023-01-15T08:02:01.638Z,100426.53
2023-01-15T08:04:28.209Z,100422.03
2023-01-15T08:06:54.807Z,100421.03
2023-01-15T08:09:21.409Z,100425.31
2023-01-15T08:12:06.611Z,100412.78
2023-01-15T08:14:51.408Z,100420.75
2023-01-15T08:17:18.015Z,100411.94
2023-01-15T08:19:44.551Z,100407.03
2023-01-15T08:22:11.604Z,100399.06
2023-01-15T08:24:38.277Z,100401.44
2023-01-15T08:27:05.224Z,100407.56
2023-01-15T08:29:31.971Z,100405.59
2023-01-15T08:31:58.631Z,100418.59
2023-01-15T08:34:25.369Z,100413.03
2023-01-15T08:36:57.266Z,100411.81
2023-01-15T08:39:23.841Z,100410.72
2023-01-15T08:41:50.399Z,100416.50
2023-01-15T08:44:17.169Z,100410.28
2023-01-15T08:46:43.949Z,100404.84
2023-01-15T08:49:10.908Z,100394.97
2023-01-15T08:51:37.495Z,100405.44
2023-01-15T08:54:05.227Z,100399.84
2023-01-15T08:56:32.018Z,100397.00
2023-01-15T08:58:58.564Z,100395.09
2023-01-15T09:01:25.243Z,100394.25
2023-01-15T09:03:51.994Z,100390.28
2023-01-15T09:06:18.585Z,100388.22
2023-01-15T09:08:45.200Z,100387.66
2023-01-15T09:11:13.295Z,100381.28
2023-01-15T09:13:40.053Z,100377.59
2023-01-15T09:16:09.901Z,100380.06
2023-01-15T09:18:39.147Z,100374.66
2023-01-15T09:21:06.685Z,100365.91
2023-01-15T09:23:33.644Z,100356.03
2023-01-15T09:26:02.545Z,100352.41
2023-01-15T09:28:29.567Z,100352.41
2023-01-15T09:30:56.260Z,100341.75
2023-01-15T09:33:23.015Z,100343.38
2023-01-15T09:35:49.805Z,100344.88
2023-01-15T09:38:18.604Z,100325.22
2023-01-15T09:40:50.361Z,100325.88
2023-01-15T09:43:52.231Z,100323.13
2023-01-15T09:46:26.016Z,100317.41
2023-01-15T09:49:04.367Z,100308.19
2023-01-15T09:51:49.900Z,100301.44
2023-01-15T09:54:51.622Z,100293.22
2023-01-15T09:57:20.689Z,100292.19
2023-01-15T09:59:49.506Z,100288.84
2023-01-15T10:02:35.875Z,100277.41
2023-01-15T10:05:16.839Z,100277.19
2023-01-15T10:07:55.455Z,100265.06
2023-01-15T10:10:29.864Z,100255.94
2023-01-15T10:13:06.647Z,100263.31
2023-01-15T10:15:45.796Z,100259.06
2023-01-15T10:18:19.409Z,100252.63
2023-01-15T10:21:15.794Z,100245.09
2023-01-15T10:24:10.841Z,100242.56
2023-01-15T10:26:40.690Z,100218.69
2023-01-15T10:29:29.392Z,100218.19
2023-01-15T10:32:21.901Z,100214.66
2023-01-15T10:35:10.317Z,100224.06
2023-01-15T10:37:46.102Z,100207.91
2023-01-15T10:40:33.228Z,100189.72
2023-01-15T10:43:02.597Z,100193.59
2023-01-15T10:45:34.418Z,100193.09
2023-01-15T10:48:09.672Z,100179.75
2023-01-15T10:50:37.087Z,100181.44
2023-01-15T10:53:22.019Z,100182.31
2023-01-15T10:55:55.377Z,100172.06
2023-01-15T10:58:21.873Z,100164.50
2023-01-15T11:00:57.044Z,100169.44
2023-01-15T11:03:35.471Z,100153.50
2023-01-15T11:06:02.215Z,100153.84
2023-01-15T11:09:07.190Z,100145.31
2023-01-15T11:12:00.666Z,100137.91
2023-01-15T11:15:05.434Z,100128.53
2023-01-15T11:18:02.205Z,100126.69
2023-01-15T11:20:42.771Z,100125.91
2023-01-15T11:23:18.550Z,100122.00
2023-01-15T11:25:54.391Z,100119.66
2023-01-15T11:28:36.757Z,100122.19
2023-01-15T11:31:03.584Z,100115.34
2023-01-15T11:33:32.118Z,100099.72
2023-01-15T11:36:01.744Z,100090.88
2023-01-15T11:38:43.406Z,100087.25
2023-01-15T11:41:24.132Z,100093.66
2023-01-15T11:44:16.919Z,100071.06
2023-01-15T11:47:04.721Z,100070.97
2023-01-15T11:49:49.679Z,100050.44
2023-01-15T11:52:17.730Z,100047.59
2023-01-15T11:54:48.833Z,100033.09
2023-01-15T11:57:31.479Z,100025.28
2023-01-15T11:59:58.418Z,100020.88
2023-01-15T12:02:27.979Z,100022.72
2023-01-15T12:05:00.265Z,100011.13
2023-01-15T12:07:27.039Z,100016.47
2023-01-15T12:10:16.380Z,100009.41
2023-01-15T12:13:21.215Z,100005.38
2023-01-15T12:16:02.793Z,99996.75
2023-01-15T12:18:37.340Z,100003.28
2023-01-15T12:21:15.842Z,100011.31
2023-01-15T12:24:09.698Z,100004.19
2023-01-15T12:27:19.663Z,99995.13
2023-01-15T12:29:52.734Z,99992.09
2023-01-15T12:32:33.702Z,99994.94
2023-01-15T12:35:08.647Z,99988.69
2023-01-15T12:37:42.281Z,99986.47
2023-01-15T12:40:14.567Z,99984.63
2023-01-15T12:43:01.469Z,99975.59
2023-01-15T12:45:36.898Z,99991.28
2023-01-15T12:48:06.399Z,99987.88
2023-01-15T12:50:39.398Z,99979.97
2023-01-15T12:53:42.565Z,99970.22
2023-01-15T12:56:33.905Z,99977.94
2023-01-15T12:59:05.246Z,99969.63
2023-01-15T13:01:53.230Z,99964.81
2023-01-15T13:04:48.812Z,99959.56
2023-01-15T13:07:46.125Z,99958.81
2023-01-15T13:10:28.551Z,99955.56
2023-01-15T13:13:16.344Z,99956.44
2023-01-15T13:15:50.414Z,99969.56
2023-01-15T13:18:48.093Z,99969.16
2023-01-15T13:21:17.285Z,99963.03
2023-01-15T13:24:01.991Z,99969.94
2023-01-15T13:26:43.420Z,99966.56
2023-01-15T13:29:23.344Z,99954.63
2023-01-15T13:32:06.790Z,99940.31
2023-01-15T13:34:45.632Z,99936.84
2023-01-15T13:37:24.309Z,99940.41
2023-01-15T13:39:54.569Z,99937.66
2023-01-15T13:42:33.157Z,99935.25
2023-01-15T13:45:02.346Z,99929.69
2023-01-15T13:47:32.538Z,99929.84
2023-01-15T13:50:04.801Z,99925.84
2023-01-15T13:52:34.036Z,99935.97
2023-01-15T13:55:10.486Z,99932.25
2023-01-15T13:57:40.533Z,99927.53
2023-01-15T14:00:26.523Z,99921.72
2023-01-15T14:02:55.919Z,99926.38
2023-01-15T14:05:33.392Z,99926.19
2023-01-15T14:08:04.510Z,99916.13
2023-01-15T14:10:31.028Z,99919.03
2023-01-15T14:13:11.060Z,99913.97
2023-01-15T14:15:58.652Z,99913.84
2023-01-15T14:18:30.941Z,99910.69
2023-01-15T14:21:18.727Z,99915.31
2023-01-15T14:23:45.422Z,99908.53
2023-01-15T14:26:33.094Z,99914.84
2023-01-15T14:29:31.879Z,99907.69
2023-01-15T14:32:16.749Z,99912.31
2023-01-15T14:34:43.768Z,99906.81
2023-01-15T14:37:13.034Z,99896.50
2023-01-15T14:39:39.615Z,99901.13
2023-01-15T14:42:43.711Z,99892.66
2023-01-15T14:45:13.007Z,99891.06
2023-01-15T14:47:54.435Z,99891.47
2023-01-15T14:50:27.827Z,99888.63
2023-01-15T14:52:59.406Z,99891.47
2023-01-15T14:55:26.724Z,99889.88
2023-01-15T14:58:02.128Z,99896.81
2023-01-15T15:00:40.123Z,99899.63
2023-01-15T15:03:26.217Z,99886.22
2023-01-15T15:05:53.245Z,99887.34
2023-01-15T15:08:20.942Z,99888.56
2023-01-15T15:10:54.884Z,99888.56
2023-01-15T15:13:37.958Z,99886.03
2023-01-15T15:16:22.657Z,99879.09
2023-01-15T15:18:58.454Z,99867.66
2023-01-15T15:21:32.443Z,99864.97
2023-01-15T15:24:32.439Z,99864.97
2023-01-15T15:27:15.209Z,99864.38
2023-01-15T15:29:42.281Z,99859.16
2023-01-15T15:32:15.080Z,99859.44
2023-01-15T15:34:47.067Z,99855.06
2023-01-15T15:37:25.871Z,99848.84
2023-01-15T15:40:03.260Z,99851.63
2023-01-15T15:42:57.319Z,99849.69
2023-01-15T15:45:49.401Z,99845.19
2023-01-15T15:48:42.955Z,99850.69
2023-01-15T15:51:36.521Z,99848.13
2023-01-15T15:54:28.220Z,99842.31
2023-01-15T15:57:09.538Z,99847.78
2023-01-15T15:59:45.589Z,99848.75
2023-01-15T16:02:18.100Z,99848.03
2023-01-15T16:04:50.500Z,99847.31
2023-01-15T16:07:27.665Z,99848.28
2023-01-15T16:09:58.709Z,99843.06
2023-01-15T16:12:29.215Z,99844.91
2023-01-15T16:14:57.776Z,99842.34
2023-01-15T16:17:27.039Z,99837.22
2023-01-15T16:19:56.320Z,99841.75
2023-01-15T16:22:23.410Z,99840.88
2023-01-15T16:24:57.797Z,99845.41
2023-01-15T16:27:32.772Z,99832.03
2023-01-15T16:30:00.038Z,99838.72
2023-01-15T16:32:36.153Z,99839.81
2023-01-15T16:35:15.895Z,99837.25
2023-01-15T16:37:46.557Z,99841.66
2023-01-15T16:40:24.412Z,99834.59
2023-01-15T16:43:06.213Z,99846.16
2023-01-15T16:45:34.390Z,99834.47
2023-01-15T16:48:23.917Z,99838.13
2023-01-15T16:50:51.991Z,99840.78
2023-01-15T16:53:37.175Z,99832.88
2023-01-15T16:56:04.885Z,99840.09
2023-01-15T16:58:36.417Z,99838.25
2023-01-15T17:01:42.937Z,99839.34
2023-01-15T17:04:29.555Z,99843.25
2023-01-15T17:07:18.373Z,99835.00
2023-01-15T17:09:54.677Z,99835.97
2023-01-15T17:12:38.328Z,99841.59
2023-01-15T17:15:14.088Z,99831.13
2023-01-15T17:17:42.112Z,99821.28
2023-01-15T17:20:10.567Z,99823.34
2023-01-15T17:22:37.669Z,99813.63
2023-01-15T17:25:22.626Z,99822.63
2023-01-15T17:27:49.199Z,99821.16
2023-01-15T17:30:16.568Z,99817.78
2023-01-15T17:32:43.245Z,99814.50
2023-01-15T17:35:24.251Z,99814.63
2023-01-15T17:37:51.218Z,99813.03
2023-01-15T17:40:18.157Z,99817.56
2023-01-15T17:42:45.285Z,99825.69
2023-01-15T17:45:25.154Z,99825.56
2023-01-15T17:47:51.739Z,99819.38
2023-01-15T17:50:18.668Z,99829.19
2023-01-15T17:52:45.820Z,99829.19
2023-01-15T17:55:36.217Z,99825.09
2023-01-15T17:58:23.364Z,99817.19
2023-01-15T18:01:10.344Z,99821.31
2023-01-15T18:04:01.799Z,99820.72
2023-01-15T18:06:28.723Z,99820.72
2023-01-15T18:08:58.870Z,99818.16
2023-01-15T18:11:25.450Z,99819.97
2023-01-15T18:13:52.483Z,99820.97
2023-01-15T18:16:19.253Z,99821.81
2023-01-15T18:18:45.855Z,99819.25
2023-01-15T18:21:12.450Z,99820.97
2023-01-15T18:23:39.705Z,99809.56
2023-01-15T18:26:07.795Z,99809.56
2023-01-15T18:28:39.059Z,99822.06
2023-01-15T18:31:06.886Z,99820.47
2023-01-15T18:33:33.752Z,99817.81
2023-01-15T18:36:04.548Z,99826.91
2023-01-15T18:38:31.154Z,99823.53
2023-01-15T18:40:57.829Z,99815.72
2023-01-15T18:43:42.996Z,99820.13
2023-01-15T18:46:34.496Z,99806.88
2023-01-15T18:49:01.041Z,99815.09
2023-01-15T18:51:27.599Z,99822.28
2023-01-15T18:53:54.169Z,99819.00
2023-01-15T18:56:39.070Z,99821.78
2023-01-15T18:59:13.068Z,99826.16
2023-01-15T19:01:40.984Z,99825.19
2023-01-15T19:04:10.970Z,99824.34
2023-01-15T19:06:39.335Z,99834.19
2023-01-15T19:09:07.925Z,99826.53
2023-01-15T19:11:35.259Z,99819.50
2023-01-15T19:14:20.773Z,99820.31
2023-01-15T19:17:06.065Z,99810.63
2023-01-15T19:19:32.643Z,99809.91
2023-01-15T19:22:17.787Z,99811.72
2023-01-15T19:24:45.652Z,99820.09
2023-01-15T19:27:12.690Z,99831.88
2023-01-15T19:29:39.265Z,99833.78
2023-01-15T19:32:05.935Z,99832.22
2023-01-15T19:34:34.403Z,99838.41
2023-01-15T19:37:01.345Z,99834.88
2023-01-15T19:39:28.961Z,99827.97
2023-01-15T19:42:14.557Z,99831.59
2023-01-15T19:44:59.823Z,99815.34
2023-01-15T19:47:53.321Z,99812.28
2023-01-15T19:50:25.930Z,99809.13
2023-01-15T19:52:54.397Z,99808.50
2023-01-15T19:55:23.245Z,99809.59
2023-01-15T19:57:57.492Z,99806.81
2023-01-15T20:00:25.182Z,99813.22
2023-01-15T20:02:51.956Z,99811.91
2023-01-15T20:05:19.553Z,99816.25
2023-01-15T20:07:46.148Z,99814.56
2023-01-15T20:10:18.107Z,99815.41
2023-01-15T20:13:03.358Z,99819.78
2023-01-15T20:15:30.857Z,99826.69
2023-01-15T20:17:58.147Z,99825.00
2023-01-15T20:20:26.270Z,99825.09
2023-01-15T20:22:56.531Z,99815.53
2023-01-15T20:25:23.749Z,99810.22
2023-01-15T20:27:50.324Z,99808.72
2023-01-15T20:30:20.817Z,99821.09
2023-01-15T20:32:48.358Z,99832.66
2023-01-15T20:35:21.031Z,99830.31
2023-01-15T20:37:51.243Z,99828.59
2023-01-15T20:40:21.031Z,99822.78
2023-01-15T20:43:06.371Z,99816.72
2023-01-15T20:45:33.317Z,99816.94
2023-01-15T20:48:20.232Z,99824.22
2023-01-15T20:51:00.858Z,99824.31
2023-01-15T20:53:29.875Z,99823.22
2023-01-15T20:55:57.777Z,99833.06
2023-01-15T20:58:25.001Z,99825.41
2023-01-15T21:00:52.269Z,99828.31
2023-01-15T21:03:19.131Z,99829.41
2023-01-15T21:05:45.821Z,99823.66
2023-01-15T21:08:12.638Z,99820.16
2023-01-15T21:10:41.152Z,99819.03
2023-01-15T21:13:08.109Z,99810.28
2023-01-15T21:15:34.759Z,99818.53
2023-01-15T21:18:01.381Z,99815.75
2023-01-15T21:20:28.111Z,99810.53
2023-01-15T21:22:54.742Z,99812.31
2023-01-15T21:25:21.343Z,99806.00
2023-01-15T21:27:47.920Z,99803.59
2023-01-15T21:30:14.760Z,99814.25
2023-01-15T21:32:46.184Z,99807.22
2023-01-15T21:35:12.791Z,99810.00
2023-01-15T21:37:39.443Z,99805.84
2023-01-15T21:40:06.687Z,99801.72
2023-01-15T21:42:52.975Z,99801.34
2023-01-15T21:45:19.802Z,99804.63
2023-01-15T21:47:46.393Z,99804.84
2023-01-15T21:50:13.236Z,99794.16
2023-01-15T21:52:39.829Z,99787.25
2023-01-15T21:55:07.438Z,99780.09
2023-01-15T21:57:34.056Z,99786.16
2023-01-15T22:00:00.629Z,99782.66
2023-01-15T22:02:29.725Z,99785.44
2023-01-15T22:04:56.491Z,99775.75
2023-01-15T22:07:23.147Z,99785.56
2023-01-15T22:09:49.779Z,99788.97
2023-01-15T22:12:16.620Z,99788.22
2023-01-15T22:14:43.210Z,99786.00
2023-01-15T22:17:10.964Z,99782.00
2023-01-15T22:19:37.760Z,99776.16
2023-01-15T22:22:10.692Z,99765.31
2023-01-15T22:24:39.688Z,99768.28
2023-01-15T22:27:08.089Z,99769.09
2023-01-15T22:29:38.371Z,99769.53
2023-01-15T22:32:05.981Z,99776.56
2023-01-15T22:34:32.611Z,99783.94
2023-01-15T22:36:59.523Z,99782.44
2023-01-15T22:39:27.014Z,99789.78
2023-01-15T22:42:12.091Z,99783.75
2023-01-15T22:44:38.587Z,99786.50
2023-01-15T22:47:05.727Z,99788.44
2023-01-15T22:49:32.692Z,99791.84
2023-01-15T22:51:59.378Z,99784.59
2023-01-15T22:54:25.972Z,99788.97
2023-01-15T22:56:52.551Z,99794.16
2023-01-15T22:59:19.533Z,99797.59
2023-01-15T23:01:46.613Z,99811.63
2023-01-15T23:04:18.909Z,99798.31
2023-01-15T23:06:45.877Z,99790.22
2023-01-15T23:09:13.190Z,99791.91
2023-01-15T23:11:40.110Z,99790.22
2023-01-15T23:14:07.914Z,99796.50
2023-01-15T23:16:35.160Z,99792.25
2023-01-15T23:19:02.176Z,99785.22
2023-01-15T23:21:29.068Z,99771.06
2023-01-15T23:23:57.411Z,99762.09
2023-01-15T23:26:25.528Z,99757.97
2023-01-15T23:28:52.850Z,99751.69
2023-01-15T23:31:20.448Z,99742.81
2023-01-15T23:33:47.261Z,99724.19
2023-01-15T23:36:14.240Z,99734.00
2023-01-15T23:38:42.847Z,99756.75
2023-01-15T23:41:14.101Z,99768.03
2023-01-15T23:44:00.387Z,99767.31
2023-01-15T23:46:35.068Z,99764.22
2023-01-15T23:49:10.026Z,99765.19
2023-01-15T23:51:37.257Z,99759.13
2023-01-15T23:54:04.860Z,99751.16
2023-01-15T23:56:32.654Z,99752.84
2023-01-15T23:58:59.321Z,99754.78
